Flight Track Log - Related Links

Times and Time Zones

All times are in EDT time to prevent confusion due to time zone crossing. See the PDT4236 flight status page for this flight to view local times or setup timezone preferences in your user account.


Time Position Orientation Groundspeed Altitude Reporting Facility
EDT Latitude Longitude Course Direction KTS MPH feet Rate Location/Type
Fri 02:35:04 PM 35.2267 -80.9547 340° North 126 145 1,500  Level Atlanta Center
Fri 02:35:53 PM 35.2542 -80.9689 337° Northwest 130 150 2,400 1,200 Climbing Atlanta Center
Fri 02:36:54 PM 35.2967 -80.9928 335° Northwest 160 184 3,700 1,328 Climbing Atlanta Center
Fri 02:37:00 PM 35.3813 -81.0240 338° Northwest  Level FlightAware Approximate
Fri 02:37:55 PM 35.3367 -81.0142 336° Northwest 160 184 5,100  Level Atlanta Center
Fri 02:38:00 PM 35.4549 -81.0490 347° North  Level FlightAware Approximate
Fri 02:38:20 PM 35.3536 -81.0211 342° North 158 182 5,900  Level Atlanta Center
Fri 02:38:56 PM 35.3767 -81.0306 342° North 146 168 7,100 1,500 Climbing Atlanta Center
Fri 02:39:00 PM 35.5268 -81.0768 321° Northwest  Level FlightAware Approximate
Fri 02:39:20 PM 35.3894 -81.0353 343° North 142 163 7,400  Level Atlanta Center
Fri 02:39:57 PM 35.4125 -81.0444 342° North 144 166 7,900 900 Climbing Atlanta Center
Fri 02:40:00 PM 35.5974 -81.1118 340° North  Level FlightAware Approximate
Fri 02:40:20 PM 35.4294 -81.0492 347° North 155 178 8,300  Level Atlanta Center
Fri 02:41:20 PM 35.4736 -81.0653 343° North 173 199 9,800 1,200 Climbing Atlanta Center
Fri 02:42:20 PM 35.5178 -81.0817 343° North 167 192 10,700 950 Climbing Atlanta Center
Fri 02:43:20 PM 35.5642 -81.1028 340° North 174 200 11,700 1,000 Climbing Atlanta Center
Fri 02:44:20 PM 35.6106 -81.1192 344° North 174 200 12,700 1,000 Climbing Atlanta Center
Fri 02:45:20 PM 35.6567 -81.1353 344° North 169 194 13,700 850 Climbing Atlanta Center
Fri 02:46:20 PM 35.7053 -81.1592 338° Northwest 174 200 14,400 650 Climbing Atlanta Center
Fri 02:47:20 PM 35.7539 -81.1778 343° North 174 200 15,000 500 Climbing Atlanta Center
Fri 02:48:20 PM 35.8022 -81.2044 336° Northwest 180 207 15,400 450 Climbing Atlanta Center
Fri 02:49:20 PM 35.8531 -81.2283 339° North 180 207 15,900 650 Climbing Atlanta Center
Fri 02:50:20 PM 35.9014 -81.2522 338° Northwest 185 213 16,700 800 Climbing Atlanta Center
Fri 02:51:20 PM 35.9458 -81.2764 336° Northwest 185 213 17,500 600 Climbing Atlanta Center
Fri 02:52:20 PM 35.9858 -81.2981 336° Northwest 178 205 17,900 250 Climbing Atlanta Center
Fri 02:53:20 PM 36.0303 -81.3197 338° Northwest 178 205 18,000 50 Climbing Atlanta Center
Fri 02:54:20 PM 36.0808 -81.3461 337° Northwest 183 211 18,000  Level Atlanta Center
Fri 02:55:20 PM 36.1314 -81.3728 337° Northwest 189 217 18,000  Level Atlanta Center
Fri 02:56:20 PM 36.1822 -81.3994 337° Northwest 195 224 18,000  Level Atlanta Center
Fri 02:57:20 PM 36.2350 -81.4261 338° Northwest 201 231 18,000  Level Atlanta Center
Fri 02:58:20 PM 36.2917 -81.4550 338° Northwest 201 231 18,000 -50 Level Atlanta Center
Fri 02:59:20 PM 36.3467 -81.4817 339° North 196 226 17,900  Descending Atlanta Center
Fri 03:00:20 PM 36.3992 -81.5083 338° Northwest 202 232 18,000 50 Climbing Atlanta Center
Fri 03:01:20 PM 36.4497 -81.5353 337° Northwest 202 232 18,000  Level Atlanta Center
Fri 03:02:20 PM 36.5025 -81.5619 338° Northwest 196 226 18,000  Level Atlanta Center
Fri 03:03:20 PM 36.5553 -81.5914 336° Northwest 196 226 18,000  Level Atlanta Center
Fri 03:04:20 PM 36.6100 -81.6206 337° Northwest 201 231 18,000  Level Atlanta Center
Fri 03:05:20 PM 36.6628 -81.6475 338° Northwest 201 231 18,000  Level Atlanta Center
Fri 03:06:20 PM 36.7111 -81.6719 338° Northwest 201 231 18,000  Level Atlanta Center
Fri 03:07:20 PM 36.7639 -81.6989 338° Northwest 195 224 18,000  Level Atlanta Center
Fri 03:09:31 PM 36.8769 -81.7594 337° Northwest 202 232 18,000 -31 Level Indianapolis Center
Fri 03:10:33 PM 36.9311 -81.7864 338° Northwest 206 237 17,900  Descending Indianapolis Center
Fri 03:11:36 PM 36.9833 -81.8150 336° Northwest 206 237 18,000 48 Climbing Indianapolis Center
Fri 03:12:38 PM 37.0358 -81.8422 338° Northwest 204 235 18,000  Level Indianapolis Center
Fri 03:13:40 PM 37.0972 -81.8750 337° Northwest 206 237 18,000  Level Indianapolis Center
Fri 03:14:42 PM 37.1506 -81.9033 337° Northwest 207 238 18,000  Level Indianapolis Center
Fri 03:15:44 PM 37.2042 -81.9317 337° Northwest 209 241 18,000  Level Indianapolis Center
Fri 03:16:46 PM 37.2575 -81.9603 337° Northwest 208 239 18,000  Level Indianapolis Center
Fri 03:17:48 PM 37.3117 -81.9886 337° Northwest 210 242 18,000  Level Indianapolis Center
Fri 03:18:50 PM 37.3733 -82.0222 337° Northwest 208 239 18,000  Level Indianapolis Center
Fri 03:19:52 PM 37.4281 -82.0508 337° Northwest 210 242 18,000 -145 Level Indianapolis Center
Fri 03:20:54 PM 37.4817 -82.0789 337° Northwest 209 241 17,700 -629 Descending Indianapolis Center
Fri 03:21:56 PM 37.5428 -82.1133 336° Northwest 231 266 16,700 -1,016 Descending Indianapolis Center
Fri 03:22:58 PM 37.6058 -82.1469 337° Northwest 243 280 15,600 -968 Descending Indianapolis Center
Fri 03:24:00 PM 37.6694 -82.1800 338° Northwest 246 283 14,700 -1,016 Descending Indianapolis Center
Fri 03:25:02 PM 37.7392 -82.2175 337° Northwest 236 272 13,500 -1,161 Descending Indianapolis Center
Fri 03:26:04 PM 37.8003 -82.2503 337° Northwest 236 272 12,300 -1,161 Descending Indianapolis Center
Fri 03:27:06 PM 37.8606 -82.2833 337° Northwest 237 273 11,100 -1,161 Descending Indianapolis Center
Fri 03:28:08 PM 37.9139 -82.3350 323° Northwest 249 287 9,900 -1,161 Descending Indianapolis Center
Fri 03:29:10 PM 37.9606 -82.3925 316° Northwest 240 276 8,700 -1,306 Descending Indianapolis Center
Fri 03:30:12 PM 38.0144 -82.4606 315° West 236 272 7,200 -1,548 Descending Indianapolis Center
Fri 03:31:14 PM 38.0736 -82.4878 340° North 231 266 5,500 -1,104 Descending Indianapolis Center
Fri 03:32:17 PM 38.1358 -82.5064 347° North 231 266 4,900 -480 Descending Indianapolis Center
Fri 03:33:19 PM 38.1964 -82.5203 350° North 224 258 4,500 -387 Descending Indianapolis Center

Login

Don't have an account? Register now (free) for customized features, flight alerts, and more!